createdAt,value
2018-11-10T00:01:03.929Z,9.20
2018-11-10T00:03:39.225Z,9.20
2018-11-10T00:06:14.923Z,9.20
2018-11-10T00:08:50.462Z,9.20
2018-11-10T00:11:26.108Z,9.20
2018-11-10T00:14:01.344Z,9.10
2018-11-10T00:16:36.972Z,9.20
2018-11-10T00:19:12.283Z,9.10
2018-11-10T00:21:47.873Z,9.10
2018-11-10T00:24:23.107Z,9.10
2018-11-10T00:27:05.629Z,9.10
2018-11-10T00:29:40.923Z,9.10
2018-11-10T00:32:16.632Z,9.10
2018-11-10T00:34:52.326Z,9.10
2018-11-10T00:37:27.760Z,9.00
2018-11-10T00:40:03.415Z,9.00
2018-11-10T00:42:38.824Z,9.00
2018-11-10T00:45:14.049Z,9.00
2018-11-10T00:47:49.618Z,9.00
2018-11-10T00:50:24.989Z,9.00
2018-11-10T00:53:00.456Z,9.00
2018-11-10T00:55:35.769Z,8.90
2018-11-10T00:58:11.496Z,8.90
2018-11-10T01:00:46.804Z,8.90
2018-11-10T01:03:22.303Z,8.90
2018-11-10T01:05:57.770Z,8.90
2018-11-10T01:08:33.377Z,8.80
2018-11-10T01:11:08.963Z,8.80
2018-11-10T01:13:44.585Z,8.80
2018-11-10T01:16:20.121Z,8.80
2018-11-10T01:18:55.786Z,8.80
2018-11-10T01:21:31.243Z,8.80
2018-11-10T01:24:06.765Z,8.70
2018-11-10T01:26:42.128Z,8.70
2018-11-10T01:29:17.753Z,8.70
2018-11-10T01:31:53.236Z,8.70
2018-11-10T01:34:28.698Z,8.70
2018-11-10T01:37:04.069Z,8.60
2018-11-10T01:39:39.462Z,8.50
2018-11-10T01:42:14.760Z,8.50
2018-11-10T01:44:50.335Z,8.50
2018-11-10T01:47:25.809Z,8.60
2018-11-10T01:50:01.352Z,8.60
2018-11-10T01:52:36.681Z,8.50
2018-11-10T01:55:12.511Z,8.50
2018-11-10T01:57:47.816Z,8.50
2018-11-10T02:00:23.361Z,8.50
2018-11-10T02:02:58.584Z,8.50
2018-11-10T02:05:33.994Z,8.50
2018-11-10T02:08:09.371Z,8.50
2018-11-10T02:10:45.362Z,8.50
2018-11-10T02:13:20.832Z,8.50
2018-11-10T02:15:56.392Z,8.50
2018-11-10T02:18:31.661Z,8.50
2018-11-10T02:21:07.495Z,8.50
2018-11-10T02:23:42.993Z,8.40
2018-11-10T02:26:18.685Z,8.40
2018-11-10T02:28:54.161Z,8.40
2018-11-10T02:31:29.817Z,8.40
2018-11-10T02:34:05.757Z,8.40
2018-11-10T02:36:41.046Z,8.40
2018-11-10T02:39:16.536Z,8.40
2018-11-10T02:41:51.973Z,8.40
2018-11-10T02:44:27.212Z,8.30
2018-11-10T02:47:03.176Z,8.40
2018-11-10T02:49:38.546Z,8.40
2018-11-10T02:52:13.885Z,8.30
2018-11-10T02:54:49.192Z,8.30
2018-11-10T02:57:24.948Z,8.30
2018-11-10T03:00:00.134Z,8.30
2018-11-10T03:02:35.763Z,8.40
2018-11-10T03:05:11.682Z,8.40
2018-11-10T03:07:47.340Z,8.40
2018-11-10T03:10:22.979Z,8.40
2018-11-10T03:12:58.644Z,8.40
2018-11-10T03:15:34.107Z,8.30
2018-11-10T03:18:09.584Z,8.30
2018-11-10T03:20:45.065Z,8.30
2018-11-10T03:23:20.529Z,8.20
2018-11-10T03:25:55.934Z,8.20
2018-11-10T03:28:31.616Z,8.20
2018-11-10T03:31:07.341Z,8.20
2018-11-10T03:33:42.742Z,8.20
2018-11-10T03:36:18.226Z,8.30
2018-11-10T03:38:53.814Z,8.30
2018-11-10T03:41:29.273Z,8.30
2018-11-10T03:44:05.001Z,8.30
2018-11-10T03:46:40.512Z,8.30
2018-11-10T03:49:16.002Z,8.30
2018-11-10T03:51:51.371Z,8.30
2018-11-10T03:54:27.107Z,8.20
2018-11-10T03:57:02.945Z,8.20
2018-11-10T03:59:38.626Z,8.20
2018-11-10T04:02:14.072Z,8.20
2018-11-10T04:04:49.698Z,8.30
2018-11-10T04:07:25.008Z,8.30
2018-11-10T04:10:00.795Z,8.40
2018-11-10T04:12:36.413Z,8.40
2018-11-10T04:15:12.091Z,8.40
2018-11-10T04:17:47.405Z,8.40
2018-11-10T04:20:22.878Z,8.40
2018-11-10T04:22:58.425Z,8.50
2018-11-10T04:25:34.077Z,8.50
2018-11-10T04:28:09.281Z,8.50
2018-11-10T04:30:44.796Z,8.50
2018-11-10T04:33:20.127Z,8.50
2018-11-10T04:35:55.649Z,8.50
2018-11-10T04:38:31.088Z,8.60
2018-11-10T04:41:07.252Z,8.60
2018-11-10T04:43:42.677Z,8.60
2018-11-10T04:46:18.245Z,8.60
2018-11-10T04:48:53.685Z,8.60
2018-11-10T04:51:29.062Z,8.60
2018-11-10T04:54:04.892Z,8.70
2018-11-10T04:56:40.397Z,8.70
2018-11-10T04:59:16.008Z,8.70
2018-11-10T05:01:51.637Z,8.70
2018-11-10T05:04:27.061Z,8.70
2018-11-10T05:07:02.630Z,8.70
2018-11-10T05:09:38.439Z,8.70
2018-11-10T05:12:14.236Z,8.70
2018-11-10T05:14:49.732Z,8.70
2018-11-10T05:17:25.341Z,8.70
2018-11-10T05:20:00.540Z,8.70
2018-11-10T05:22:36.021Z,8.80
2018-11-10T05:25:11.740Z,8.80
2018-11-10T05:27:47.312Z,8.80
2018-11-10T05:30:22.789Z,8.80
2018-11-10T05:32:58.394Z,8.80
2018-11-10T05:35:33.605Z,8.80
2018-11-10T05:38:09.105Z,8.90
2018-11-10T05:40:44.558Z,8.80
2018-11-10T05:43:20.242Z,8.80
2018-11-10T05:45:55.653Z,8.80
2018-11-10T05:48:31.399Z,8.80
2018-11-10T05:51:06.853Z,8.80
2018-11-10T05:53:42.221Z,8.80
2018-11-10T05:56:17.696Z,8.80
2018-11-10T05:58:53.053Z,8.80
2018-11-10T06:01:28.395Z,8.90
2018-11-10T06:04:04.060Z,8.90
2018-11-10T06:06:39.737Z,8.90
2018-11-10T06:09:15.426Z,8.90
2018-11-10T06:11:50.861Z,8.90
2018-11-10T06:14:26.267Z,8.90
2018-11-10T06:17:01.713Z,9.00
2018-11-10T06:19:37.197Z,9.00
2018-11-10T06:22:12.700Z,9.00
2018-11-10T06:24:48.241Z,8.90
2018-11-10T06:27:23.425Z,8.90
2018-11-10T06:29:58.898Z,8.90
2018-11-10T06:32:34.436Z,9.00
2018-11-10T06:35:10.658Z,9.00
2018-11-10T06:37:46.046Z,8.90
2018-11-10T06:40:21.460Z,9.00
2018-11-10T06:42:56.769Z,9.00
2018-11-10T06:45:32.234Z,9.00
2018-11-10T06:48:07.512Z,9.00
2018-11-10T06:50:43.203Z,9.00
2018-11-10T06:53:25.348Z,9.00
2018-11-10T06:56:01.157Z,9.00
2018-11-10T06:58:36.512Z,9.00
2018-11-10T07:01:12.076Z,9.00
2018-11-10T07:03:47.310Z,9.00
2018-11-10T07:06:22.809Z,9.00
2018-11-10T07:08:58.138Z,9.10
2018-11-10T07:11:33.832Z,9.10
2018-11-10T07:14:09.158Z,9.10
2018-11-10T07:16:44.710Z,9.10
2018-11-10T07:19:20.418Z,9.10
2018-11-10T07:21:56.112Z,9.10
2018-11-10T07:24:31.487Z,9.20
2018-11-10T07:27:07.028Z,9.20
2018-11-10T07:29:42.249Z,9.20
2018-11-10T07:32:17.714Z,9.20
2018-11-10T07:34:53.041Z,9.20
2018-11-10T07:37:28.544Z,9.30
2018-11-10T07:40:04.016Z,9.30
2018-11-10T07:42:39.497Z,9.30
2018-11-10T07:45:15.943Z,9.40
2018-11-10T07:47:51.396Z,9.40
2018-11-10T07:50:26.812Z,9.50
2018-11-10T07:53:02.169Z,9.50
2018-11-10T07:55:37.492Z,9.50
2018-11-10T07:58:13.042Z,9.50
2018-11-10T08:00:51.215Z,9.50
2018-11-10T08:03:26.801Z,9.60
2018-11-10T08:06:02.497Z,9.60
2018-11-10T08:08:38.098Z,9.60
2018-11-10T08:11:13.669Z,9.70
2018-11-10T08:13:49.050Z,9.70
2018-11-10T08:16:24.552Z,9.70
2018-11-10T08:18:59.973Z,9.80
2018-11-10T08:21:35.525Z,9.80
2018-11-10T08:24:10.804Z,9.80
2018-11-10T08:26:46.149Z,9.80
2018-11-10T08:29:21.689Z,9.90
2018-11-10T08:31:57.036Z,9.90
2018-11-10T08:34:32.632Z,9.90
2018-11-10T08:37:07.814Z,10.00
2018-11-10T08:39:43.591Z,10.00
2018-11-10T08:42:18.914Z,10.10
2018-11-10T08:44:54.324Z,10.10
2018-11-10T08:47:29.563Z,10.20
2018-11-10T08:50:06.225Z,10.20
2018-11-10T08:52:42.333Z,10.20
2018-11-10T08:55:17.945Z,10.20
2018-11-10T08:57:53.345Z,10.20
2018-11-10T09:00:28.693Z,10.20
2018-11-10T09:03:04.205Z,10.20
2018-11-10T09:05:39.784Z,10.20
2018-11-10T09:08:15.311Z,10.30
2018-11-10T09:10:51.051Z,10.30
2018-11-10T09:13:26.334Z,10.40
2018-11-10T09:16:01.785Z,10.40
2018-11-10T09:18:37.053Z,10.40
2018-11-10T09:21:12.734Z,10.50
2018-11-10T09:23:47.897Z,10.50
2018-11-10T09:26:23.600Z,10.60
2018-11-10T09:28:58.925Z,10.70
2018-11-10T09:31:34.309Z,10.80
2018-11-10T09:34:09.492Z,10.90
2018-11-10T09:36:44.954Z,10.90
2018-11-10T09:39:20.373Z,11.00
2018-11-10T09:41:56.108Z,10.90
2018-11-10T09:44:31.395Z,10.80
2018-11-10T09:47:06.948Z,10.80
2018-11-10T09:49:42.358Z,10.70
2018-11-10T09:52:18.084Z,10.80
2018-11-10T09:54:53.549Z,10.80
2018-11-10T09:57:29.292Z,10.90
2018-11-10T10:00:07.021Z,11.00
2018-11-10T10:02:42.969Z,11.10
2018-11-10T10:05:18.117Z,11.10
2018-11-10T10:07:53.624Z,11.20
2018-11-10T10:10:29.481Z,11.30
2018-11-10T10:13:05.136Z,11.40
2018-11-10T10:15:40.532Z,11.50
2018-11-10T10:18:16.022Z,11.60
2018-11-10T10:20:51.260Z,11.60
2018-11-10T10:23:26.701Z,11.70
2018-11-10T10:26:02.193Z,11.70
2018-11-10T10:28:38.031Z,11.70
2018-11-10T10:31:13.345Z,11.80
2018-11-10T10:33:48.706Z,11.90
2018-11-10T10:36:24.236Z,12.00
2018-11-10T10:38:59.792Z,12.00
2018-11-10T10:41:35.206Z,12.00
2018-11-10T10:44:11.173Z,12.20
2018-11-10T10:46:46.657Z,12.20
2018-11-10T10:49:22.125Z,12.40
2018-11-10T10:51:57.472Z,12.50
2018-11-10T10:54:33.076Z,12.60
2018-11-10T10:57:08.595Z,12.70
2018-11-10T10:59:44.171Z,12.70
2018-11-10T11:02:24.680Z,12.80
2018-11-10T11:05:04.389Z,12.80
2018-11-10T11:07:39.801Z,12.90
2018-11-10T11:10:15.370Z,12.90
2018-11-10T11:12:50.931Z,12.90
2018-11-10T11:15:26.900Z,13.00
2018-11-10T11:18:02.260Z,12.90
2018-11-10T11:20:37.780Z,13.00
2018-11-10T11:23:13.300Z,13.10
2018-11-10T11:25:49.216Z,13.10
2018-11-10T11:28:25.313Z,13.10
2018-11-10T11:31:00.854Z,13.20
2018-11-10T11:33:36.257Z,13.20
2018-11-10T11:36:11.669Z,13.20
2018-11-10T11:38:46.861Z,13.20
2018-11-10T11:41:22.531Z,13.30
2018-11-10T11:43:57.866Z,13.30
2018-11-10T11:46:33.336Z,13.30
2018-11-10T11:49:08.489Z,13.30
2018-11-10T11:51:44.028Z,13.40
2018-11-10T11:54:19.387Z,13.40
2018-11-10T11:56:54.846Z,13.50
2018-11-10T11:59:30.085Z,13.60
2018-11-10T12:02:06.068Z,13.50
2018-11-10T12:04:41.455Z,13.50
2018-11-10T12:07:16.954Z,13.50
2018-11-10T12:09:52.552Z,13.50
2018-11-10T12:12:28.105Z,13.40
2018-11-10T12:15:03.476Z,13.40
2018-11-10T12:17:38.901Z,13.40
2018-11-10T12:20:15.348Z,13.30
2018-11-10T12:22:50.818Z,13.30
2018-11-10T12:25:26.229Z,13.30
2018-11-10T12:28:01.753Z,13.20
2018-11-10T12:30:37.080Z,13.20
2018-11-10T12:33:12.798Z,13.20
2018-11-10T12:35:48.193Z,13.20
2018-11-10T12:38:23.886Z,13.10
2018-11-10T12:40:59.286Z,13.10
2018-11-10T12:43:34.780Z,13.10
2018-11-10T12:46:10.120Z,13.00
2018-11-10T12:48:45.576Z,13.00
2018-11-10T12:51:21.040Z,12.90
2018-11-10T12:54:03.322Z,12.80
2018-11-10T12:56:38.822Z,12.80
2018-11-10T12:59:14.514Z,12.80
2018-11-10T13:01:50.035Z,12.80
2018-11-10T13:04:25.486Z,12.80
2018-11-10T13:07:01.266Z,12.80
2018-11-10T13:09:36.917Z,12.70
2018-11-10T13:12:12.331Z,12.70
2018-11-10T13:14:47.689Z,12.70
2018-11-10T13:17:23.112Z,12.60
2018-11-10T13:19:58.555Z,12.50
2018-11-10T13:22:33.767Z,12.50
2018-11-10T13:25:10.302Z,12.50
2018-11-10T13:27:45.628Z,12.40
2018-11-10T13:30:21.009Z,12.40
2018-11-10T13:32:56.373Z,12.40
2018-11-10T13:35:31.881Z,12.40
2018-11-10T13:38:07.136Z,12.40
2018-11-10T13:40:42.661Z,12.30
2018-11-10T13:43:18.121Z,12.30
2018-11-10T13:45:53.553Z,12.30
2018-11-10T13:48:29.045Z,12.20
2018-11-10T13:51:04.720Z,12.20
2018-11-10T13:53:40.070Z,12.20
2018-11-10T13:56:15.737Z,12.10
2018-11-10T13:58:51.472Z,12.10
2018-11-10T14:01:27.041Z,12.10
2018-11-10T14:04:02.328Z,12.10
2018-11-10T14:06:37.837Z,12.10
2018-11-10T14:09:13.351Z,12.10
2018-11-10T14:11:49.333Z,12.10
2018-11-10T14:14:24.865Z,12.00
2018-11-10T14:17:00.460Z,12.00
2018-11-10T14:19:35.860Z,12.00
2018-11-10T14:22:11.430Z,11.90
2018-11-10T14:24:46.808Z,11.90
2018-11-10T14:27:22.417Z,11.90
2018-11-10T14:29:57.656Z,11.90
2018-11-10T14:32:33.104Z,11.90
2018-11-10T14:35:09.345Z,11.90
2018-11-10T14:37:44.925Z,11.80
2018-11-10T14:40:20.419Z,11.80
2018-11-10T14:42:55.978Z,11.80
2018-11-10T14:45:31.299Z,11.80
2018-11-10T14:48:06.756Z,11.80
2018-11-10T14:50:42.070Z,11.80
2018-11-10T14:53:17.750Z,11.80
2018-11-10T14:55:53.113Z,11.80
2018-11-10T14:58:28.533Z,11.80
2018-11-10T15:01:03.885Z,11.80
2018-11-10T15:03:39.432Z,11.80
2018-11-10T15:06:14.695Z,11.80
2018-11-10T15:08:50.318Z,11.80
2018-11-10T15:11:25.983Z,11.70
2018-11-10T15:14:01.561Z,11.70
2018-11-10T15:16:37.089Z,11.70
2018-11-10T15:19:12.399Z,11.60
2018-11-10T15:21:47.969Z,11.60
2018-11-10T15:24:23.458Z,11.60
2018-11-10T15:26:58.940Z,11.60
2018-11-10T15:29:34.417Z,11.50
2018-11-10T15:32:09.705Z,11.50
2018-11-10T15:34:45.177Z,11.50
2018-11-10T15:37:20.663Z,11.50
2018-11-10T15:39:56.097Z,11.50
2018-11-10T15:42:31.459Z,11.50
2018-11-10T15:45:08.224Z,11.50
2018-11-10T15:47:43.961Z,11.50
2018-11-10T15:50:19.997Z,11.60
2018-11-10T15:52:55.293Z,11.50
2018-11-10T15:55:30.664Z,11.50
2018-11-10T15:58:06.349Z,11.50
2018-11-10T16:00:41.657Z,11.50
2018-11-10T16:03:17.083Z,11.40
2018-11-10T16:05:52.813Z,11.40
2018-11-10T16:08:28.185Z,11.40
2018-11-10T16:11:03.798Z,11.40
2018-11-10T16:13:39.132Z,11.30
2018-11-10T16:16:14.541Z,11.30
2018-11-10T16:18:49.869Z,11.30
2018-11-10T16:21:25.350Z,11.30
2018-11-10T16:24:00.671Z,11.30
2018-11-10T16:26:36.098Z,11.30
2018-11-10T16:29:11.422Z,11.30
2018-11-10T16:31:46.862Z,11.30
2018-11-10T16:34:22.395Z,11.30
2018-11-10T16:36:57.962Z,11.30
2018-11-10T16:39:33.362Z,11.30
2018-11-10T16:42:09.213Z,11.30
2018-11-10T16:44:44.766Z,11.30
2018-11-10T16:47:20.222Z,11.30
2018-11-10T16:49:55.536Z,11.30
2018-11-10T16:52:31.211Z,11.30
2018-11-10T16:55:07.429Z,11.30
2018-11-10T16:57:43.041Z,11.30
2018-11-10T17:00:19.713Z,11.30
2018-11-10T17:02:55.425Z,11.30
2018-11-10T17:05:30.808Z,11.20
2018-11-10T17:08:06.476Z,11.20
2018-11-10T17:10:41.831Z,11.30
2018-11-10T17:13:17.274Z,11.20
2018-11-10T17:15:52.700Z,11.20
2018-11-10T17:18:28.378Z,11.20
2018-11-10T17:21:03.759Z,11.20
2018-11-10T17:23:39.199Z,11.20
2018-11-10T17:26:14.673Z,11.20
2018-11-10T17:28:50.158Z,11.10
2018-11-10T17:31:25.674Z,11.10
2018-11-10T17:34:01.390Z,11.10
2018-11-10T17:36:36.800Z,11.10
2018-11-10T17:39:12.437Z,11.10
2018-11-10T17:41:47.922Z,11.10
2018-11-10T17:44:23.621Z,11.10
2018-11-10T17:46:58.881Z,11.10
2018-11-10T17:49:35.005Z,11.10
2018-11-10T17:52:10.388Z,11.10
2018-11-10T17:54:45.929Z,11.10
2018-11-10T17:57:21.150Z,11.10
2018-11-10T17:59:56.821Z,11.10
2018-11-10T18:02:32.504Z,11.10
2018-11-10T18:05:10.079Z,11.10
2018-11-10T18:07:45.676Z,11.10
2018-11-10T18:10:21.380Z,11.10
2018-11-10T18:12:56.743Z,11.10
2018-11-10T18:15:32.549Z,11.10
2018-11-10T18:18:07.953Z,11.10
2018-11-10T18:20:43.749Z,11.10
2018-11-10T18:23:19.012Z,11.10
2018-11-10T18:25:54.548Z,11.10
2018-11-10T18:28:29.960Z,11.00
2018-11-10T18:31:05.541Z,11.00
2018-11-10T18:33:41.366Z,11.00
2018-11-10T18:36:16.904Z,11.00
2018-11-10T18:38:52.428Z,11.00
2018-11-10T18:41:27.833Z,11.00
2018-11-10T18:44:09.741Z,11.00
2018-11-10T18:46:45.592Z,11.00
2018-11-10T18:49:20.901Z,11.00
2018-11-10T18:51:56.500Z,11.00
2018-11-10T18:54:32.030Z,11.00
2018-11-10T18:57:07.641Z,10.90
2018-11-10T18:59:42.868Z,10.90
2018-11-10T19:02:18.455Z,10.90
2018-11-10T19:04:54.787Z,10.90
2018-11-10T19:07:30.230Z,10.90
2018-11-10T19:10:07.444Z,10.90
2018-11-10T19:12:43.249Z,10.90
2018-11-10T19:15:20.061Z,10.90
2018-11-10T19:17:55.573Z,10.90
2018-11-10T19:20:31.085Z,10.90
2018-11-10T19:23:06.776Z,10.90
2018-11-10T19:25:42.190Z,11.00
2018-11-10T19:28:17.693Z,11.00
2018-11-10T19:30:53.094Z,11.00
2018-11-10T19:33:28.686Z,11.10
2018-11-10T19:36:04.185Z,11.10
2018-11-10T19:38:39.880Z,11.10
2018-11-10T19:41:15.247Z,11.20
2018-11-10T19:43:50.895Z,11.10
2018-11-10T19:46:26.249Z,11.10
2018-11-10T19:49:02.023Z,11.20
2018-11-10T19:51:37.537Z,11.20
2018-11-10T19:54:13.031Z,11.30
2018-11-10T19:56:48.453Z,11.30
2018-11-10T19:59:24.008Z,11.30
2018-11-10T20:01:59.501Z,11.40
2018-11-10T20:04:35.173Z,11.40
2018-11-10T20:07:10.621Z,11.40
2018-11-10T20:09:46.189Z,11.40
2018-11-10T20:12:21.736Z,11.40
2018-11-10T20:14:57.400Z,11.40
2018-11-10T20:17:32.957Z,11.50
2018-11-10T20:20:09.949Z,11.50
2018-11-10T20:22:45.434Z,11.50
2018-11-10T20:25:20.842Z,11.50
2018-11-10T20:27:57.160Z,11.50
2018-11-10T20:30:32.787Z,11.50
2018-11-10T20:33:08.092Z,11.50
2018-11-10T20:35:43.660Z,11.50
2018-11-10T20:38:19.064Z,11.60
2018-11-10T20:40:54.581Z,11.60
2018-11-10T20:43:30.118Z,11.60
2018-11-10T20:46:06.429Z,11.60
2018-11-10T20:48:41.865Z,11.60
2018-11-10T20:51:17.536Z,11.70
2018-11-10T20:53:52.870Z,11.60
2018-11-10T20:56:28.456Z,11.60
2018-11-10T20:59:03.959Z,11.60
2018-11-10T21:01:39.581Z,11.70
2018-11-10T21:04:15.398Z,11.70
2018-11-10T21:06:51.103Z,11.70
2018-11-10T21:09:26.354Z,11.70
2018-11-10T21:12:02.301Z,11.70
2018-11-10T21:14:37.857Z,11.70
2018-11-10T21:17:13.336Z,11.70
2018-11-10T21:19:49.246Z,11.80
2018-11-10T21:22:24.839Z,11.80
2018-11-10T21:25:00.470Z,11.80
2018-11-10T21:27:35.895Z,11.90
2018-11-10T21:30:13.000Z,11.80
2018-11-10T21:32:48.839Z,11.80
2018-11-10T21:35:24.260Z,11.80
2018-11-10T21:37:59.625Z,11.80
2018-11-10T21:40:35.111Z,11.80
2018-11-10T21:43:10.565Z,11.90
2018-11-10T21:45:46.024Z,11.90
2018-11-10T21:48:21.689Z,11.90
2018-11-10T21:50:56.889Z,11.90
2018-11-10T21:53:32.521Z,11.90
2018-11-10T21:56:07.708Z,11.90
2018-11-10T21:58:43.131Z,11.80
2018-11-10T22:01:18.503Z,11.70
2018-11-10T22:03:54.164Z,11.70
2018-11-10T22:06:29.380Z,11.60
2018-11-10T22:09:07.078Z,11.70
2018-11-10T22:11:43.961Z,11.60
2018-11-10T22:14:19.372Z,11.60
2018-11-10T22:16:54.632Z,11.50
2018-11-10T22:19:30.198Z,11.60
2018-11-10T22:22:05.885Z,11.50
2018-11-10T22:24:41.452Z,11.50
2018-11-10T22:27:17.076Z,11.50
2018-11-10T22:29:52.578Z,11.50
2018-11-10T22:32:27.958Z,11.60
2018-11-10T22:35:03.657Z,11.60
2018-11-10T22:37:39.290Z,11.70
2018-11-10T22:40:16.041Z,11.70
2018-11-10T22:42:51.600Z,11.80
2018-11-10T22:45:27.238Z,11.70
2018-11-10T22:48:02.708Z,11.80
2018-11-10T22:50:38.313Z,11.80
2018-11-10T22:53:13.858Z,11.80
2018-11-10T22:55:49.281Z,11.80
2018-11-10T22:58:24.580Z,11.80
2018-11-10T23:01:07.267Z,11.70
2018-11-10T23:03:42.713Z,11.70
2018-11-10T23:06:18.322Z,11.70
2018-11-10T23:08:53.620Z,11.70
2018-11-10T23:11:29.156Z,11.70
2018-11-10T23:14:04.685Z,11.80
2018-11-10T23:16:40.121Z,11.80
2018-11-10T23:19:15.551Z,11.80
2018-11-10T23:21:51.334Z,11.70
2018-11-10T23:24:26.681Z,11.70
2018-11-10T23:27:02.443Z,11.70
2018-11-10T23:29:37.773Z,11.70
2018-11-10T23:32:13.426Z,11.70
2018-11-10T23:34:48.783Z,11.70
2018-11-10T23:37:24.276Z,11.70
2018-11-10T23:39:59.534Z,11.80
2018-11-10T23:42:35.153Z,11.80
2018-11-10T23:45:11.032Z,11.80
2018-11-10T23:47:46.589Z,11.80
2018-11-10T23:50:21.957Z,11.80
2018-11-10T23:52:57.385Z,11.90
2018-11-10T23:55:32.821Z,11.90
2018-11-10T23:58:08.277Z,11.90
